Time;durP1;ratioP1;P1;durP2;ratioP2;P2;SDS_P1;SDS_P2;PMS_P1;PMS_P2;Temp;Humidity;BMP_temperature;BMP_pressure;BME280_temperature;BME280_humidity;BME280_pressure;Samples;Min_cycle;Max_cycle;Signal;HPM_P1;HPM_P2
2022/09/07 00:03:40;;;;;;;1.80;1.50;;;;;;;9.19;63.16;100307.15;216079;1273;140899;-66
2022/09/07 00:08:44;;;;;;;1.90;1.70;;;;;;;9.18;63.13;100306.17;216343;1274;140317;-65
2022/09/07 00:13:49;;;;;;;2.70;2.00;;;;;;;9.13;63.08;100311.50;214551;1274;141079;-64
2022/09/07 00:18:56;;;;;;;3.50;1.90;;;;;;;9.10;63.21;100313.39;215653;1275;139807;-65
2022/09/07 00:24:01;;;;;;;2.10;2.00;;;;;;;9.10;63.35;100308.85;215426;1274;140703;-64
2022/09/07 00:29:06;;;;;;;4.60;1.90;;;;;;;9.09;62.99;100306.36;213584;1276;143162;-64
2022/09/07 00:34:12;;;;;;;2.30;1.50;;;;;;;9.08;63.41;100307.46;214763;1274;139355;-64
2022/09/07 00:39:17;;;;;;;3.90;1.60;;;;;;;9.03;63.47;100304.45;214508;1274;140401;-67
2022/09/07 00:44:44;;;;;;;3.00;1.60;;;;;;;8.93;63.14;100307.95;213914;1274;141121;-64
2022/09/07 00:49:55;;;;;;;2.70;1.40;;;;;;;8.80;63.48;100312.72;214588;1274;141322;-63
2022/09/07 00:55:05;;;;;;;3.30;3.00;;;;;;;8.73;63.47;100312.08;214574;1274;141860;-65
2022/09/07 01:00:11;;;;;;;4.70;1.90;;;;;;;8.68;63.71;100315.19;214208;1274;141675;-64
2022/09/07 01:05:32;;;;;;;3.40;2.70;;;;;;;8.59;63.56;100313.70;214096;1274;141483;-64
2022/09/07 01:10:37;;;;;;;1.80;1.70;;;;;;;8.49;63.91;100311.07;214014;1274;140008;-65
2022/09/07 01:16:05;;;;;;;3.50;2.70;;;;;;;8.42;64.05;100309.02;214532;1274;139771;-64
2022/09/07 01:21:11;;;;;;;3.20;1.90;;;;;;;8.42;64.04;100302.00;214058;1274;139831;-64
2022/09/07 01:26:30;;;;;;;10.10;2.50;;;;;;;8.42;63.90;100295.83;214329;1274;140211;-65
2022/09/07 01:31:42;;;;;;;7.20;3.20;;;;;;;8.44;64.23;100293.21;214450;1274;141530;-64
2022/09/07 01:37:11;;;;;;;2.30;2.00;;;;;;;8.46;63.85;100287.28;214379;1274;140065;-63
2022/09/07 01:42:24;;;;;;;7.00;2.30;;;;;;;8.47;64.03;100288.23;214964;1274;139630;-64
2022/09/07 01:47:49;;;;;;;6.30;2.20;;;;;;;8.44;63.82;100281.92;214784;1274;139446;-65
2022/09/07 01:53:03;;;;;;;7.90;3.20;;;;;;;8.40;63.85;100279.19;215574;1274;140199;-65
2022/09/07 01:58:17;;;;;;;4.10;1.50;;;;;;;8.40;63.94;100272.38;215561;1273;139454;-65
2022/09/07 02:03:28;;;;;;;2.60;1.70;;;;;;;8.38;63.78;100268.65;215678;1274;139795;-65
2022/09/07 02:08:41;;;;;;;4.10;1.80;;;;;;;8.39;63.74;100269.59;216267;1274;139339;-65
2022/09/07 02:14:09;;;;;;;2.30;2.10;;;;;;;8.44;63.55;100273.19;215981;1274;140376;-64
2022/09/07 02:19:18;;;;;;;3.60;1.80;;;;;;;8.50;63.26;100264.96;216115;1274;139403;-64
2022/09/07 02:24:32;;;;;;;3.00;2.20;;;;;;;8.54;63.44;100265.33;215753;1274;140080;-65
2022/09/07 02:29:37;;;;;;;2.00;1.50;;;;;;;8.60;63.32;100268.23;213582;1274;140196;-64
2022/09/07 02:34:42;;;;;;;2.90;1.50;;;;;;;8.61;63.20;100269.70;215412;1274;138995;-65
2022/09/07 02:39:48;;;;;;;2.00;1.90;;;;;;;8.57;63.51;100262.08;213532;1274;139781;-64
2022/09/07 02:44:53;;;;;;;;;;;;;;;8.54;63.11;100258.25;214750;1274;140211;-63
2022/09/07 02:50:20;;;;;;;2.40;1.90;;;;;;;8.47;63.40;100252.95;214623;1274;126703;-65
2022/09/07 02:55:42;;;;;;;5.30;2.10;;;;;;;8.44;63.18;100251.55;214611;1274;139977;-63
2022/09/07 03:00:58;;;;;;;5.20;1.80;;;;;;;8.39;63.38;100245.92;214210;1271;139223;-64
2022/09/07 03:06:18;;;;;;;6.40;1.70;;;;;;;8.31;63.61;100236.04;214264;1274;139531;-65
2022/09/07 03:11:28;;;;;;;6.10;2.10;;;;;;;8.18;63.96;100242.15;214442;1274;139558;-65
2022/09/07 03:16:33;;;;;;;3.30;2.00;;;;;;;8.11;64.04;100245.37;213619;1273;140142;-64
2022/09/07 03:21:37;;;;;;;8.60;2.10;;;;;;;8.07;63.68;100250.77;214172;1274;140037;-64
2022/09/07 03:26:47;;;;;;;4.00;2.00;;;;;;;7.99;64.18;100249.17;215290;1274;139200;-65
2022/09/07 03:31:52;;;;;;;3.70;2.00;;;;;;;7.94;64.20;100254.17;213890;1274;140907;-65
2022/09/07 03:36:57;;;;;;;3.90;2.00;;;;;;;7.86;64.32;100255.28;214370;1274;144521;-64
2022/09/07 03:42:01;;;;;;;2.80;2.10;;;;;;;7.78;64.82;100255.52;215299;1274;140764;-65
2022/09/07 03:47:07;;;;;;;5.10;2.30;;;;;;;7.71;65.35;100259.34;213655;1274;141467;-63
2022/09/07 03:52:11;;;;;;;4.50;2.10;;;;;;;7.57;65.62;100255.83;215889;1274;140615;-66
2022/09/07 03:57:15;;;;;;;3.40;2.20;;;;;;;7.47;65.54;100254.70;213854;1274;140222;-65
2022/09/07 04:02:19;;;;;;;6.00;2.50;;;;;;;7.44;65.87;100252.66;215450;1274;141472;-65
2022/09/07 04:07:24;;;;;;;5.20;2.60;;;;;;;7.41;65.85;100249.59;216247;1274;139251;-64
2022/09/07 04:12:30;;;;;;;14.00;2.80;;;;;;;7.39;66.07;100244.11;216247;1274;139227;-65
2022/09/07 04:17:35;;;;;;;5.90;2.50;;;;;;;7.38;66.37;100243.79;216273;1274;141529;-66
2022/09/07 04:22:44;;;;;;;2.70;1.90;;;;;;;7.43;66.63;100242.21;215469;1274;139887;-65
2022/09/07 04:27:49;;;;;;;2.60;1.70;;;;;;;7.44;66.68;100234.75;214999;1274;141802;-65
2022/09/07 04:32:53;;;;;;;5.90;2.40;;;;;;;7.48;67.01;100233.77;214567;1274;140852;-64
2022/09/07 04:37:58;;;;;;;5.30;2.70;;;;;;;7.54;66.85;100238.56;214766;1274;139965;-65
2022/09/07 04:43:04;;;;;;;3.70;2.10;;;;;;;7.64;67.12;100243.38;214427;1274;141279;-65
2022/09/07 04:48:08;;;;;;;3.00;2.20;;;;;;;7.77;67.50;100244.61;213986;1274;141533;-64
2022/09/07 04:53:13;;;;;;;4.10;2.10;;;;;;;7.87;67.56;100245.48;213950;1274;142578;-64
2022/09/07 04:58:17;;;;;;;3.20;2.60;;;;;;;7.97;67.14;100236.02;213521;1274;141402;-65
2022/09/07 05:03:22;;;;;;;10.10;3.40;;;;;;;8.06;67.23;100221.52;214481;1274;139941;-63
2022/09/07 05:08:26;;;;;;;8.80;3.70;;;;;;;8.12;67.14;100225.64;214612;1274;140858;-64
2022/09/07 05:13:33;;;;;;;18.10;3.00;;;;;;;8.22;66.91;100222.41;214325;1274;151705;-64
2022/09/07 05:18:37;;;;;;;8.90;3.10;;;;;;;8.32;66.72;100217.39;214450;1274;143061;-65
2022/09/07 05:23:42;;;;;;;6.10;2.50;;;;;;;8.47;67.02;100234.76;214165;1274;139807;-66
2022/09/07 05:28:46;;;;;;;6.20;3.70;;;;;;;8.65;66.84;100224.80;214360;1274;141189;-64
2022/09/07 05:33:53;;;;;;;2.80;2.40;;;;;;;8.85;66.52;100214.94;213617;1274;140271;-61
2022/09/07 05:39:19;;;;;;;4.20;1.90;;;;;;;9.07;66.00;100218.98;214991;1274;139276;-63
2022/09/07 05:44:24;;;;;;;14.00;1.80;;;;;;;9.29;65.71;100225.09;215091;1274;140316;-64
2022/09/07 05:49:49;;;;;;;4.30;1.90;;;;;;;9.49;65.54;100228.60;214148;1274;140371;-64
2022/09/07 05:54:58;;;;;;;10.70;3.30;;;;;;;9.71;65.01;100224.84;214797;1274;140684;-63
2022/09/07 06:00:24;;;;;;;8.60;2.60;;;;;;;9.95;64.60;100221.81;216098;1274;140358;-63
2022/09/07 06:05:28;;;;;;;2.30;2.10;;;;;;;10.18;64.24;100231.80;215232;1274;141696;-63
2022/09/07 06:10:36;;;;;;;7.80;1.90;;;;;;;10.41;63.84;100219.09;216030;1274;139359;-62
2022/09/07 06:15:47;;;;;;;4.00;2.50;;;;;;;10.68;63.41;100208.68;215552;1274;139846;-64
2022/09/07 06:20:51;;;;;;;2.90;1.30;;;;;;;10.89;63.09;100212.77;215893;1274;140233;-63
2022/09/07 06:25:55;;;;;;;5.00;2.50;;;;;;;11.11;63.00;100223.19;215117;1273;139829;-62
2022/09/07 06:31:05;;;;;;;1.90;1.50;;;;;;;11.33;62.50;100224.43;214023;1274;139761;-64
2022/09/07 06:36:13;;;;;;;7.90;2.60;;;;;;;11.61;61.85;100220.36;214998;1274;141186;-64
2022/09/07 06:41:23;;;;;;;6.00;2.40;;;;;;;11.87;61.99;100220.61;214239;1274;139872;-64
2022/09/07 06:46:48;;;;;;;16.50;2.70;;;;;;;12.18;61.40;100218.77;214714;1274;139105;-66
2022/09/07 06:52:09;;;;;;;5.30;1.80;;;;;;;12.57;60.92;100207.02;213840;1274;139905;-67
2022/09/07 06:57:14;;;;;;;3.80;2.00;;;;;;;12.94;60.15;100213.44;214698;1274;139970;-65
2022/09/07 07:02:19;;;;;;;4.90;2.40;;;;;;;13.29;60.07;100220.55;214033;1274;139771;-63
2022/09/07 07:07:24;;;;;;;7.90;1.70;;;;;;;13.72;59.39;100216.23;214310;1274;142636;-63
2022/09/07 07:12:30;;;;;;;7.10;1.70;;;;;;;14.17;58.73;100210.55;214806;1274;140743;-64
2022/09/07 07:17:33;;;;;;;4.50;1.80;;;;;;;14.95;57.05;100205.75;213507;1274;140581;-63
2022/09/07 07:22:37;;;;;;;3.90;1.80;;;;;;;16.43;55.87;100211.03;214173;1274;140796;-64
2022/09/07 07:27:50;;;;;;;6.30;2.00;;;;;;;17.98;53.98;100204.70;214691;1273;140509;-63
2022/09/07 07:32:56;;;;;;;3.00;2.30;;;;;;;19.03;53.03;100203.02;212972;1274;2129976;-63
2022/09/07 07:38:02;;;;;;;6.10;2.60;;;;;;;19.88;51.17;100198.73;214434;1277;141531;-63
2022/09/07 07:43:27;;;;;;;4.50;1.90;;;;;;;20.67;49.44;100204.62;214432;1274;140703;-64
2022/09/07 07:48:33;;;;;;;3.00;2.10;;;;;;;21.30;48.02;100201.86;213389;1274;141746;-65
2022/09/07 07:53:39;;;;;;;2.30;1.90;;;;;;;21.75;46.43;100200.71;215980;1274;141425;-65
2022/09/07 07:58:46;;;;;;;6.80;2.60;;;;;;;21.84;44.89;100199.97;216036;1274;141049;-65
2022/09/07 08:03:50;;;;;;;3.20;2.00;;;;;;;21.95;43.82;100202.94;215900;1274;141140;-66
2022/09/07 08:08:55;;;;;;;2.40;1.50;;;;;;;22.02;43.58;100208.90;215874;1274;140806;-65
2022/09/07 08:14:04;;;;;;;4.50;2.00;;;;;;;21.83;42.40;100205.33;216164;1274;140752;-65
2022/09/07 08:19:09;;;;;;;4.10;1.50;;;;;;;21.68;41.97;100207.39;215717;1274;161898;-65
2022/09/07 08:24:13;;;;;;;2.50;1.90;;;;;;;21.73;41.83;100205.49;215669;1274;140885;-63
2022/09/07 08:29:17;;;;;;;2.90;1.90;;;;;;;21.92;42.19;100210.15;215805;1274;140059;-65
2022/09/07 08:34:23;;;;;;;3.10;1.40;;;;;;;22.13;42.09;100206.66;213567;1276;140480;-63
2022/09/07 08:39:27;;;;;;;1.50;1.40;;;;;;;22.25;41.05;100194.39;213293;1276;140955;-64
2022/09/07 08:44:42;;;;;;;2.60;2.00;;;;;;;22.12;40.25;100190.38;214789;1274;139890;-64
2022/09/07 08:50:06;;;;;;;1.70;1.60;;;;;;;22.02;40.49;100191.15;214355;1274;140012;-64
2022/09/07 08:55:37;;;;;;;6.20;2.30;;;;;;;22.07;39.95;100195.20;214182;1273;141035;-63
2022/09/07 09:00:42;;;;;;;11.00;2.40;;;;;;;22.14;39.43;100195.44;213879;1274;141728;-65
2022/09/07 09:06:25;;;;;;;3.30;1.80;;;;;;;22.19;39.94;100189.88;214410;1274;142716;-67
2022/09/07 09:12:08;;;;;;;5.60;2.20;;;;;;;22.22;39.17;100176.52;213911;1274;140500;-67
2022/09/07 09:17:45;;;;;;;1.70;1.50;;;;;;;22.27;38.68;100174.89;215004;1273;207590;-67
2022/09/07 09:22:56;;;;;;;7.10;2.10;;;;;;;22.21;38.30;100169.52;213253;1274;139980;-67
2022/09/07 09:28:01;;;;;;;4.70;2.50;;;;;;;22.25;38.44;100169.67;214831;1274;140001;-64
2022/09/07 09:33:24;;;;;;;5.00;2.30;;;;;;;22.50;38.37;100167.54;214669;1274;151370;-66
2022/09/07 09:38:36;;;;;;;8.50;2.40;;;;;;;22.73;38.38;100162.16;215075;1274;139222;-68
2022/09/07 09:43:45;;;;;;;1.90;1.50;;;;;;;22.85;38.07;100157.80;216154;1273;140244;-68
2022/09/07 09:48:58;;;;;;;3.40;2.10;;;;;;;22.88;37.83;100145.27;215714;1274;139890;-66
2022/09/07 09:54:31;;;;;;;2.20;1.70;;;;;;;22.71;37.80;100149.30;215092;1274;140932;-66
2022/09/07 09:59:37;;;;;;;1.60;1.50;;;;;;;22.73;38.13;100147.25;216035;1274;140001;-66
2022/09/07 10:05:29;;;;;;;7.40;2.40;;;;;;;22.93;38.60;100133.78;216163;1274;140765;-66
2022/09/07 10:10:33;;;;;;;2.20;1.50;;;;;;;23.06;38.01;100134.90;215934;1274;139875;-66
2022/09/07 10:15:37;;;;;;;2.10;1.90;;;;;;;23.11;37.30;100132.11;214035;1274;139896;-66
2022/09/07 10:20:43;;;;;;;;;;;;;;;23.00;36.84;100125.42;214510;1274;139467;-65
2022/09/07 10:25:47;;;;;;;4.70;1.70;;;;;;;22.91;37.24;100129.82;216084;1274;126638;-66
2022/09/07 10:30:51;;;;;;;1.80;1.70;;;;;;;22.75;37.71;100126.95;214066;1274;139493;-66
2022/09/07 10:36:12;;;;;;;4.90;2.70;;;;;;;22.57;37.81;100129.80;214920;1274;139490;-66
2022/09/07 10:41:22;;;;;;;2.90;2.00;;;;;;;22.65;38.05;100124.21;214968;1274;139820;-66
2022/09/07 10:46:30;;;;;;;9.10;2.10;;;;;;;22.76;37.89;100114.58;213480;1274;139614;-66
2022/09/07 10:52:33;;;;;;;1.60;1.50;;;;;;;22.75;38.16;100109.38;213466;1274;230799;-65
2022/09/07 10:57:45;;;;;;;3.80;2.30;;;;;;;22.85;38.18;100103.27;213965;1274;139956;-66
2022/09/07 11:03:13;;;;;;;3.10;1.70;;;;;;;22.87;38.16;100097.73;214658;1274;140210;-66
2022/09/07 11:08:52;;;;;;;5.00;2.30;;;;;;;22.96;37.88;100090.64;213467;1274;140247;-66
2022/09/07 11:14:22;;;;;;;4.30;1.90;;;;;;;22.80;37.39;100084.23;214444;1274;141240;-67
2022/09/07 11:19:33;;;;;;;2.10;1.60;;;;;;;22.86;36.94;100092.70;214338;1274;142146;-66
2022/09/07 11:25:00;;;;;;;2.20;2.00;;;;;;;22.91;36.75;100096.98;214820;1274;139700;-65
2022/09/07 11:30:39;;;;;;;5.00;2.40;;;;;;;23.16;36.43;100099.16;214788;1274;139837;-66
2022/09/07 11:35:57;;;;;;;2.30;2.10;;;;;;;23.29;36.29;100092.73;214682;1273;139745;-67
2022/09/07 11:41:33;;;;;;;5.50;2.10;;;;;;;23.47;36.16;100089.31;214778;1274;139322;-65
2022/09/07 11:46:38;;;;;;;;;;;;;;;23.56;35.58;100082.04;214358;1274;140326;-66
2022/09/07 11:51:45;;;;;;;3.40;2.20;;;;;;;23.58;35.55;100080.89;216790;1274;126182;-66
2022/09/07 11:57:03;;;;;;;1.90;1.80;;;;;;;23.74;35.19;100078.42;216177;1274;139918;-67
2022/09/07 12:02:20;;;;;;;2.90;2.10;;;;;;;23.88;34.84;100070.77;215817;1274;139507;-69
2022/09/07 12:08:20;;;;;;;8.40;2.50;;;;;;;23.86;34.82;100066.64;214409;1274;139997;-67
2022/09/07 12:13:36;;;;;;;4.70;2.00;;;;;;;23.97;34.49;100064.83;215282;1274;141957;-67
2022/09/07 12:18:43;;;;;;;8.50;2.80;;;;;;;24.14;34.44;100058.33;215126;1274;139322;-67
2022/09/07 12:23:47;;;;;;;4.30;2.00;;;;;;;24.01;33.84;100059.84;214826;1274;141135;-66
2022/09/07 12:28:52;;;;;;;2.60;2.40;;;;;;;23.65;34.37;100056.21;214266;1274;141194;-67
2022/09/07 12:34:30;;;;;;;3.40;1.60;;;;;;;23.79;34.42;100053.73;214177;1274;140210;-66
2022/09/07 12:39:38;;;;;;;2.60;2.40;;;;;;;23.94;34.51;100044.36;215133;1274;140567;-66
2022/09/07 12:44:43;;;;;;;4.60;2.30;;;;;;;24.03;34.26;100033.00;213741;1274;139978;-66
2022/09/07 12:50:10;;;;;;;4.90;2.10;;;;;;;24.09;33.91;100019.92;213470;1274;139835;-66
2022/09/07 12:55:39;;;;;;;7.60;2.60;;;;;;;24.10;33.56;100020.21;214132;1274;139308;-65
2022/09/07 13:01:32;;;;;;;3.00;1.90;;;;;;;24.00;33.53;100019.58;214349;1274;141794;-65
2022/09/07 13:07:09;;;;;;;5.40;2.00;;;;;;;23.95;33.83;100026.79;214009;1274;139186;-63
2022/09/07 13:12:46;;;;;;;1.90;1.60;;;;;;;23.77;34.11;100021.17;214051;1274;140381;-62
2022/09/07 13:18:02;;;;;;;5.30;2.40;;;;;;;23.62;33.64;100015.23;213705;1276;142356;-64
2022/09/07 13:23:19;;;;;;;2.80;2.40;;;;;;;23.59;33.87;100001.26;214279;1274;141368;-64
2022/09/07 13:28:47;;;;;;;2.20;1.90;;;;;;;23.73;34.16;99999.67;215024;1274;140703;-65
2022/09/07 13:33:53;;;;;;;3.20;2.40;;;;;;;23.64;33.76;99998.14;212997;1276;140785;-64
2022/09/07 13:38:58;;;;;;;5.80;2.20;;;;;;;23.54;34.21;99996.88;215007;1274;140392;-66
2022/09/07 13:44:04;;;;;;;5.30;2.40;;;;;;;23.50;33.94;99998.13;213782;1277;141964;-65
2022/09/07 13:49:35;;;;;;;4.00;2.10;;;;;;;23.42;33.97;100006.91;214578;1275;141331;-66
2022/09/07 13:54:57;;;;;;;2.10;1.90;;;;;;;23.07;34.13;99997.55;215979;1274;140972;-66
2022/09/07 14:00:02;;;;;;;2.60;2.00;;;;;;;23.01;34.15;99994.89;215967;1274;140634;-66
2022/09/07 14:05:09;;;;;;;2.80;2.00;;;;;;;22.97;34.13;99992.42;216210;1274;139979;-66
2022/09/07 14:10:21;;;;;;;79.80;7.60;;;;;;;23.01;33.69;99988.52;215485;1274;140787;-65
2022/09/07 14:15:33;;;;;;;4.90;1.80;;;;;;;23.02;33.80;99993.23;214828;1274;142810;-65
2022/09/07 14:20:48;;;;;;;4.10;2.10;;;;;;;22.87;33.84;99984.36;213469;1274;142038;-65
2022/09/07 14:26:17;;;;;;;2.50;2.30;;;;;;;22.72;34.03;99971.77;214197;1274;141995;-66
2022/09/07 14:31:23;;;;;;;6.20;3.00;;;;;;;22.60;34.77;99962.23;213442;1274;141450;-66
2022/09/07 14:36:30;;;;;;;;;;;;;;;22.52;34.79;99956.94;213765;1274;139916;-66
2022/09/07 14:41:51;;;;;;;3.40;1.80;;;;;;;22.35;34.94;99957.02;215767;1274;127135;-66
2022/09/07 14:46:59;;;;;;;6.80;2.20;;;;;;;22.27;35.07;99954.77;214313;1274;139873;-65
2022/09/07 14:52:05;;;;;;;6.00;2.20;;;;;;;22.31;35.34;99948.83;215492;1274;140143;-66
2022/09/07 14:57:08;;;;;;;2.50;2.00;;;;;;;22.24;35.75;99948.58;214013;1273;140659;-66
2022/09/07 15:02:30;;;;;;;3.30;1.90;;;;;;;22.15;35.85;99946.35;213038;1274;140212;-65
2022/09/07 15:07:45;;;;;;;5.50;2.90;;;;;;;22.11;35.66;99945.67;213657;1274;140885;-65
2022/09/07 15:12:53;;;;;;;4.50;2.90;;;;;;;22.00;35.83;99936.30;213436;1274;140216;-66
2022/09/07 15:18:06;;;;;;;11.40;2.70;;;;;;;21.97;36.11;99932.89;214301;1274;139424;-67
2022/09/07 15:23:19;;;;;;;3.60;2.70;;;;;;;21.92;36.24;99932.35;214090;1273;140125;-63
2022/09/07 15:28:32;;;;;;;5.10;2.80;;;;;;;21.85;36.31;99929.94;214719;1273;141172;-68
2022/09/07 15:33:57;;;;;;;5.00;3.20;;;;;;;21.83;36.15;99928.39;216116;1274;140063;-65
2022/09/07 15:39:03;;;;;;;5.80;2.90;;;;;;;21.82;36.27;99923.95;216433;1273;142507;-64
2022/09/07 15:44:08;;;;;;;9.10;3.10;;;;;;;21.88;36.31;99914.74;214361;1274;140021;-66
2022/09/07 15:49:14;;;;;;;11.50;2.70;;;;;;;21.86;36.78;99913.32;215981;1273;139783;-66
2022/09/07 15:54:23;;;;;;;4.20;2.90;;;;;;;21.73;36.83;99900.16;215872;1273;140599;-65
2022/09/07 15:59:28;;;;;;;5.50;2.90;;;;;;;21.68;36.97;99901.86;216337;1272;139464;-66
2022/09/07 16:04:37;;;;;;;6.00;3.20;;;;;;;21.63;37.52;99897.10;215960;1273;140276;-66
2022/09/07 16:09:44;;;;;;;7.00;2.50;;;;;;;21.53;38.53;99893.07;215010;1273;139650;-66
2022/09/07 16:14:49;;;;;;;7.90;2.50;;;;;;;21.40;39.42;99894.63;214054;1274;140469;-66
2022/09/07 16:20:00;;;;;;;17.00;2.70;;;;;;;21.17;39.81;99888.13;214844;1274;230459;-68
2022/09/07 16:25:05;;;;;;;9.80;2.60;;;;;;;20.86;39.97;99890.43;214833;1272;141112;-67
2022/09/07 16:30:14;;;;;;;4.30;2.50;;;;;;;20.56;40.62;99885.66;214450;1274;140574;-66
2022/09/07 16:35:22;;;;;;;8.60;3.70;;;;;;;20.26;41.35;99882.02;213855;1274;140786;-66
2022/09/07 16:40:27;;;;;;;9.80;2.80;;;;;;;19.98;42.27;99869.95;214588;1274;139932;-67
2022/09/07 16:45:33;;;;;;;9.30;2.80;;;;;;;19.70;42.77;99870.60;214567;1274;140330;-66
2022/09/07 16:50:59;;;;;;;6.00;2.70;;;;;;;19.43;43.15;99874.41;213822;1273;140571;-66
2022/09/07 16:56:06;;;;;;;;;;;;;;;19.17;43.55;99872.17;214195;1274;142250;-67
2022/09/07 17:01:19;;;;;;;9.40;3.40;;;;;;;18.90;44.31;99879.08;214543;1274;126091;-65
2022/09/07 17:06:25;;;;;;;22.50;4.60;;;;;;;18.66;44.94;99883.94;214786;1274;139533;-66
2022/09/07 17:11:32;;;;;;;9.30;4.00;;;;;;;18.42;45.43;99883.48;215734;1273;139609;-65
2022/09/07 17:16:38;;;;;;;14.80;4.40;;;;;;;18.22;45.94;99883.41;214566;1272;139647;-64
2022/09/07 17:21:42;;;;;;;27.00;5.80;;;;;;;18.03;46.68;99882.04;214266;1273;140145;-67
2022/09/07 17:26:48;;;;;;;12.50;4.70;;;;;;;17.82;47.07;99883.20;214100;1272;140602;-66
2022/09/07 17:31:53;;;;;;;14.40;5.60;;;;;;;17.60;47.72;99882.38;214036;1272;139686;-66
2022/09/07 17:37:18;;;;;;;13.30;4.10;;;;;;;17.37;47.88;99889.74;214479;1274;140221;-65
2022/09/07 17:42:24;;;;;;;5.70;2.80;;;;;;;17.13;48.37;99893.59;215978;1274;140431;-65
2022/09/07 17:47:49;;;;;;;7.20;2.80;;;;;;;16.92;49.19;99898.27;216156;1274;140270;-65
2022/09/07 17:52:52;;;;;;;4.40;3.50;;;;;;;16.70;49.62;99902.77;216101;1274;141381;-65
2022/09/07 17:58:03;;;;;;;9.30;3.80;;;;;;;16.48;50.08;99901.64;214892;1274;140517;-66
2022/09/07 18:03:07;;;;;;;9.50;3.60;;;;;;;16.27;50.88;99899.53;215648;1273;141382;-66
2022/09/07 18:08:11;;;;;;;6.80;3.80;;;;;;;16.08;51.28;99898.43;215604;1274;141114;-65
2022/09/07 18:13:15;;;;;;;19.10;4.90;;;;;;;15.91;51.41;99902.97;215556;1273;140341;-65
2022/09/07 18:18:20;;;;;;;5.70;4.10;;;;;;;15.76;51.65;99902.73;215073;1274;139207;-66
2022/09/07 18:23:25;;;;;;;15.60;4.10;;;;;;;15.63;51.78;99905.89;214517;1274;139803;-65
2022/09/07 18:28:30;;;;;;;5.70;3.00;;;;;;;15.52;52.03;99916.00;215213;1274;140494;-66
2022/09/07 18:33:56;;;;;;;6.80;3.10;;;;;;;15.41;52.25;99914.91;214343;1274;139936;-65
2022/09/07 18:39:02;;;;;;;5.40;3.20;;;;;;;15.31;52.69;99910.14;214299;1274;139287;-65
2022/09/07 18:44:07;;;;;;;9.30;3.60;;;;;;;15.19;52.93;99912.30;213751;1274;139726;-65
2022/09/07 18:49:31;;;;;;;4.20;3.80;;;;;;;15.07;53.19;99914.20;213483;1274;141366;-66
2022/09/07 18:54:35;;;;;;;7.80;3.90;;;;;;;14.94;53.49;99911.39;213438;1274;139074;-66
2022/09/07 18:59:39;;;;;;;11.00;5.10;;;;;;;14.82;53.53;99909.42;213963;1274;139809;-65
2022/09/07 19:04:44;;;;;;;5.40;2.80;;;;;;;14.70;53.77;99913.27;214387;1274;139501;-66
2022/09/07 19:10:10;;;;;;;6.50;3.10;;;;;;;14.62;53.81;99913.86;214576;1274;139198;-65
2022/09/07 19:15:14;;;;;;;6.40;3.80;;;;;;;14.53;54.01;99911.14;213878;1274;141497;-66
2022/09/07 19:20:18;;;;;;;9.50;5.20;;;;;;;14.43;54.49;99909.06;214925;1275;139964;-66
2022/09/07 19:25:22;;;;;;;13.50;4.00;;;;;;;14.33;54.73;99903.83;213943;1277;139477;-66
2022/09/07 19:30:27;;;;;;;12.00;4.70;;;;;;;14.20;55.05;99903.33;213553;1276;2210071;-66
2022/09/07 19:35:34;;;;;;;7.60;4.40;;;;;;;14.10;55.23;99904.20;214180;1274;139401;-66
2022/09/07 19:40:39;;;;;;;11.50;4.90;;;;;;;14.03;55.46;99902.10;215142;1274;139474;-66
2022/09/07 19:45:43;;;;;;;7.20;4.80;;;;;;;13.96;55.49;99901.92;216130;1274;140423;-66
2022/09/07 19:50:50;;;;;;;7.90;4.50;;;;;;;13.93;55.48;99896.27;216302;1274;139359;-66
2022/09/07 19:56:11;;;;;;;8.70;4.00;;;;;;;13.89;55.61;99883.52;216155;1274;140088;-66
2022/09/07 20:01:23;;;;;;;8.30;4.90;;;;;;;13.82;55.98;99876.62;216142;1274;140941;-66
2022/09/07 20:06:28;;;;;;;5.60;3.90;;;;;;;13.75;55.93;99880.75;215928;1274;139953;-66
2022/09/07 20:11:33;;;;;;;5.80;3.50;;;;;;;13.66;55.82;99878.66;214464;1274;139581;-66
2022/09/07 20:16:38;;;;;;;5.50;4.40;;;;;;;13.58;56.08;99877.81;214842;1274;140258;-66
2022/09/07 20:21:43;;;;;;;7.60;4.60;;;;;;;13.50;56.30;99874.84;214944;1273;139766;-65
2022/09/07 20:26:47;;;;;;;9.40;4.50;;;;;;;13.42;56.52;99880.96;215214;1273;140656;-65
2022/09/07 20:31:52;;;;;;;6.80;4.50;;;;;;;13.36;56.76;99883.84;214462;1274;139285;-65
2022/09/07 20:36:58;;;;;;;7.50;3.70;;;;;;;13.31;56.96;99878.73;214462;1274;140072;-63
2022/09/07 20:42:02;;;;;;;9.40;4.40;;;;;;;13.23;57.55;99877.67;214862;1274;139614;-66
2022/09/07 20:47:06;;;;;;;10.00;4.80;;;;;;;13.15;57.66;99876.91;214135;1274;140781;-65
2022/09/07 20:52:11;;;;;;;12.20;5.20;;;;;;;13.05;57.88;99875.10;214492;1274;140929;-64
2022/09/07 20:57:15;;;;;;;7.50;4.40;;;;;;;12.92;58.02;99872.77;214273;1273;141636;-65
2022/09/07 21:02:19;;;;;;;7.10;5.30;;;;;;;12.76;58.51;99872.04;213818;1274;140443;-65
2022/09/07 21:07:25;;;;;;;8.30;4.50;;;;;;;12.64;58.95;99871.30;215253;1273;140965;-65
2022/09/07 21:12:30;;;;;;;8.10;5.20;;;;;;;12.56;59.15;99865.30;214769;1274;139322;-65
2022/09/07 21:17:34;;;;;;;9.10;5.70;;;;;;;12.54;59.48;99864.67;216203;1274;139876;-65
2022/09/07 21:22:39;;;;;;;10.80;4.40;;;;;;;12.49;59.41;99860.82;214699;1274;142273;-65
2022/09/07 21:27:47;;;;;;;11.90;5.50;;;;;;;12.43;59.84;99857.79;214845;1273;140800;-65
2022/09/07 21:32:52;;;;;;;13.70;4.70;;;;;;;12.41;60.30;99860.27;214552;1274;141440;-65
2022/09/07 21:37:58;;;;;;;9.80;4.50;;;;;;;12.33;59.85;99855.91;214720;1274;142450;-66
2022/09/07 21:43:02;;;;;;;6.00;3.50;;;;;;;12.28;60.45;99849.19;214950;1274;140004;-66
2022/09/07 21:48:06;;;;;;;10.10;4.70;;;;;;;12.21;60.35;99857.38;216019;1274;139699;-65
2022/09/07 21:53:12;;;;;;;5.70;4.30;;;;;;;12.14;60.89;99858.61;216325;1274;140526;-65
2022/09/07 21:58:19;;;;;;;;;;;;;;;12.07;60.93;99858.97;216150;1274;140384;-65
2022/09/07 22:03:24;;;;;;;5.60;4.10;;;;;;;11.96;61.22;99863.35;217012;1273;127214;-66
2022/09/07 22:08:29;;;;;;;5.70;4.10;;;;;;;11.85;61.09;99859.38;216243;1272;140895;-65
2022/09/07 22:13:33;;;;;;;5.20;4.50;;;;;;;11.75;61.16;99862.76;215898;1274;140911;-65
2022/09/07 22:18:39;;;;;;;6.70;4.90;;;;;;;11.70;61.65;99867.50;214734;1274;140724;-66
2022/09/07 22:23:48;;;;;;;6.00;4.70;;;;;;;11.70;61.55;99865.15;215478;1274;140447;-67
2022/09/07 22:28:53;;;;;;;4.60;3.90;;;;;;;11.76;61.65;99863.69;214800;1273;139854;-65
2022/09/07 22:34:00;;;;;;;7.00;5.40;;;;;;;11.85;61.63;99861.10;214473;1274;140185;-65
2022/09/07 22:39:09;;;;;;;7.70;6.00;;;;;;;11.93;61.41;99857.16;214165;1273;139680;-66
2022/09/07 22:44:19;;;;;;;5.50;4.10;;;;;;;11.99;61.19;99848.44;214785;1274;140886;-65
2022/09/07 22:49:24;;;;;;;5.10;3.70;;;;;;;12.03;60.81;99843.39;214205;1274;139871;-65
2022/09/07 22:54:28;;;;;;;7.70;5.00;;;;;;;12.10;60.37;99831.75;214220;1274;139313;-65
2022/09/07 22:59:32;;;;;;;5.10;3.50;;;;;;;12.16;59.94;99814.87;214848;1273;140321;-65
2022/09/07 23:04:37;;;;;;;7.90;3.40;;;;;;;12.24;59.49;99812.73;213977;1273;139867;-66
2022/09/07 23:09:43;;;;;;;4.00;3.50;;;;;;;12.33;59.62;99814.85;213773;1274;141360;-65
2022/09/07 23:14:47;;;;;;;3.50;2.90;;;;;;;12.36;59.25;99819.38;214859;1271;140027;-66
2022/09/07 23:19:51;;;;;;;10.50;5.10;;;;;;;12.38;58.75;99825.25;213939;1274;139204;-65
2022/09/07 23:24:55;;;;;;;10.10;5.00;;;;;;;12.42;58.56;99824.95;215116;1274;139377;-65
2022/09/07 23:30:00;;;;;;;5.70;4.40;;;;;;;12.41;58.75;99824.60;214580;1273;140279;-65
2022/09/07 23:35:04;;;;;;;5.20;3.60;;;;;;;12.39;58.45;99823.23;215103;1274;140779;-66
2022/09/07 23:40:10;;;;;;;7.50;3.90;;;;;;;12.38;58.51;99819.73;215819;1274;139621;-65
2022/09/07 23:45:14;;;;;;;7.20;4.60;;;;;;;12.32;58.48;99817.95;214253;1274;140539;-66